Debrecen, Hungary
Current Conditions -  °F | °C
As of 10:50 PM on Saturday 25 Oct 2014 (Local Time) from LHDC Reporting Station
NA  
Wind Chill: 37°   Ceiling: NA
Heat Index: 37°   Visibility: NA
Dew Point: 36°   Wind: 2mph
Humidity: 93%   Direction: 180°S
Pressure: 30.33"   Gusts: NA
Location:  47.54°N, 21.63°E
Report Text: LHDC 252050Z AUTO 18002KT 03/02 Q1027
Loading
Personal Weather Stations






























Interactive Weather Map
Tropical Storm Tracking
New forecast layout! Learn more

10-Day Weather Forecast

Advertisements
Track Severe Weather on mobile